Time;durP1;ratioP1;P1;durP2;ratioP2;P2;SDS_P1;SDS_P2;PMS_P1;PMS_P2;Temp;Humidity;BMP_temperature;BMP_pressure;BME280_temperature;BME280_humidity;BME280_pressure;Samples;Min_cycle;Max_cycle;Signal;HPM_P1;HPM_P2
2022/03/17 00:00:42;;;;;;;;;;;18.80;57.60;;;;;;5033915;28;1295;-69
2022/03/17 00:03:07;;;;;;;;;;;18.80;57.70;;;;;;5034480;28;1356;-69
2022/03/17 00:05:33;;;;;;;;;;;18.80;57.70;;;;;;5034806;28;1071;-70
2022/03/17 00:07:58;;;;;;;;;;;18.80;57.70;;;;;;5033727;28;1404;-70
2022/03/17 00:10:24;;;;;;;;;;;18.80;57.70;;;;;;5034155;28;1953;-70
2022/03/17 00:12:49;;;;;;;;;;;18.80;57.80;;;;;;5032840;28;1417;-70
2022/03/17 00:15:15;;;;;;;;;;;18.80;57.80;;;;;;5050442;28;1173;-70
2022/03/17 00:17:44;;;;;;;;;;;18.70;57.70;;;;;;5053380;28;1251;-69
2022/03/17 00:20:10;;;;;;;;;;;18.70;57.70;;;;;;5053554;28;1255;-70
2022/03/17 00:22:36;;;;;;;;;;;18.70;57.80;;;;;;5053744;28;1353;-70
2022/03/17 00:25:02;;;;;;;;;;;18.70;57.80;;;;;;5054508;28;1388;-70
2022/03/17 00:27:27;;;;;;;;;;;18.70;57.80;;;;;;5053925;28;1342;-69
2022/03/17 00:29:54;;;;;;;;;;;18.70;57.80;;;;;;5046411;28;1896;-69
2022/03/17 00:32:20;;;;;;;;;;;18.70;57.80;;;;;;5054025;28;1323;-70
2022/03/17 00:37:30;;;;;;;;;;;18.70;57.90;;;;;;5050177;28;1068;-69
2022/03/17 00:39:55;;;;;;;;;;;18.70;57.90;;;;;;5049736;28;1176;-69
2022/03/17 00:42:21;;;;;;;;;;;18.70;57.90;;;;;;5042235;28;1341;-69
2022/03/17 00:44:50;;;;;;;;;;;18.70;58.00;;;;;;5031714;28;1248;-69
2022/03/17 00:47:15;;;;;;;;;;;18.70;58.00;;;;;;5032271;28;1239;-69
2022/03/17 00:49:41;;;;;;;;;;;18.70;58.00;;;;;;5032797;28;1902;-69
2022/03/17 00:52:10;;;;;;;;;;;18.70;58.00;;;;;;5032751;28;1072;-69
2022/03/17 00:54:39;;;;;;;;;;;18.70;58.00;;;;;;5033370;28;1307;-69
2022/03/17 00:57:05;;;;;;;;;;;18.70;58.00;;;;;;5032905;28;1122;-69
2022/03/17 00:59:30;;;;;;;;;;;18.70;58.00;;;;;;5031333;28;1466;-69
2022/03/17 01:01:55;;;;;;;;;;;18.60;58.00;;;;;;5033183;28;1272;-70
2022/03/17 01:04:21;;;;;;;;;;;18.60;58.00;;;;;;5032957;28;1332;-70
2022/03/17 01:06:46;;;;;;;;;;;18.60;58.60;;;;;;5032694;28;1241;-69
2022/03/17 01:09:12;;;;;;;;;;;18.60;58.00;;;;;;5032385;28;1898;-69
2022/03/17 01:11:37;;;;;;;;;;;18.60;58.00;;;;;;5032310;28;1150;-69
2022/03/17 01:14:03;;;;;;;;;;;18.60;58.60;;;;;;5039296;28;1268;-69
2022/03/17 01:16:28;;;;;;;;;;;18.60;58.10;;;;;;5052771;28;1122;-70
2022/03/17 01:18:53;;;;;;;;;;;18.60;58.10;;;;;;5052095;28;1085;-69
2022/03/17 01:21:19;;;;;;;;;;;18.60;58.10;;;;;;5052934;28;1407;-69
2022/03/17 01:23:44;;;;;;;;;;;18.60;58.10;;;;;;5052196;28;1348;-69
2022/03/17 01:26:10;;;;;;;;;;;18.60;58.10;;;;;;5052407;28;1242;-69
2022/03/17 01:28:35;;;;;;;;;;;18.60;58.20;;;;;;5052392;28;1226;-69
2022/03/17 01:31:00;;;;;;;;;;;18.60;58.20;;;;;;5045245;28;1906;-69
2022/03/17 01:33:26;;;;;;;;;;;18.60;58.20;;;;;;5052691;28;1296;-70
2022/03/17 01:35:51;;;;;;;;;;;18.60;58.20;;;;;;5052460;28;1039;-70
2022/03/17 01:38:17;;;;;;;;;;;18.60;58.20;;;;;;5052127;28;1340;-69
2022/03/17 01:40:42;;;;;;;;;;;18.60;58.20;;;;;;5051662;28;1225;-70
2022/03/17 01:43:08;;;;;;;;;;;18.60;58.20;;;;;;5051782;28;1363;-70
2022/03/17 01:45:33;;;;;;;;;;;18.60;58.20;;;;;;5048193;28;1225;-69
2022/03/17 01:47:59;;;;;;;;;;;18.60;58.20;;;;;;5050560;28;1243;-70
2022/03/17 01:50:24;;;;;;;;;;;18.50;58.20;;;;;;5051664;28;1898;-70
2022/03/17 01:52:49;;;;;;;;;;;18.50;58.20;;;;;;5050354;28;1297;-70
2022/03/17 01:55:17;;;;;;;;;;;18.50;58.20;;;;;;5051980;28;1286;-70
2022/03/17 01:57:42;;;;;;;;;;;18.50;58.30;;;;;;5050259;28;1112;-69
2022/03/17 02:00:08;;;;;;;;;;;18.50;58.30;;;;;;5050306;28;1263;-69
2022/03/17 02:02:34;;;;;;;;;;;18.50;58.30;;;;;;5052565;28;1294;-70
2022/03/17 02:05:03;;;;;;;;;;;18.50;58.30;;;;;;5052846;28;1317;-69
2022/03/17 02:07:28;;;;;;;;;;;18.50;58.30;;;;;;5051586;28;1241;-69
2022/03/17 02:09:54;;;;;;;;;;;18.50;58.30;;;;;;5050031;28;1898;-69
2022/03/17 02:15:04;;;;;;;;;;;18.50;58.30;;;;;;5051962;28;1062;-70
2022/03/17 02:17:33;;;;;;;;;;;18.50;58.30;;;;;;5050524;28;1170;-69
2022/03/17 02:19:58;;;;;;;;;;;18.50;58.30;;;;;;5039026;28;1302;-70
2022/03/17 02:22:24;;;;;;;;;;;18.50;58.30;;;;;;5048464;28;1300;-70
2022/03/17 02:27:38;;;;;;;;;;;18.50;58.40;;;;;;5049440;28;1077;-69
2022/03/17 02:30:05;;;;;;;;;;;18.50;58.40;;;;;;5049053;28;1902;-69
2022/03/17 02:32:30;;;;;;;;;;;18.50;58.40;;;;;;5050065;28;1302;-68
2022/03/17 02:34:56;;;;;;;;;;;18.50;58.40;;;;;;5049426;28;1199;-69
2022/03/17 02:37:21;;;;;;;;;;;18.50;58.40;;;;;;5047709;28;1287;-69
2022/03/17 02:39:47;;;;;;;;;;;18.50;58.40;;;;;;5050156;28;1196;-69
2022/03/17 02:42:12;;;;;;;;;;;18.50;58.40;;;;;;5050635;28;1134;-69
2022/03/17 02:44:38;;;;;;;;;;;18.50;58.40;;;;;;5051895;28;1228;-70
2022/03/17 02:47:04;;;;;;;;;;;18.50;58.50;;;;;;5050954;28;1339;-70
2022/03/17 02:49:30;;;;;;;;;;;18.50;58.40;;;;;;5050098;28;1949;-70
2022/03/17 02:51:55;;;;;;;;;;;18.50;58.50;;;;;;5052206;28;1277;-70
2022/03/17 02:54:20;;;;;;;;;;;18.50;58.50;;;;;;5051759;28;1291;-70
2022/03/17 02:56:46;;;;;;;;;;;18.40;58.50;;;;;;5050583;28;1391;-70
2022/03/17 02:59:11;;;;;;;;;;;18.50;58.50;;;;;;5051337;28;1241;-70
2022/03/17 03:01:37;;;;;;;;;;;18.40;58.40;;;;;;5052132;28;1242;-70
2022/03/17 03:04:02;;;;;;;;;;;18.40;58.40;;;;;;5051080;28;1207;-70
2022/03/17 03:06:27;;;;;;;;;;;18.40;58.50;;;;;;5051899;28;1071;-70
2022/03/17 03:08:53;;;;;;;;;;;18.40;58.50;;;;;;5052849;28;1262;-70
2022/03/17 03:11:18;;;;;;;;;;;18.40;58.50;;;;;;5055472;28;1965;-70
2022/03/17 03:13:44;;;;;;;;;;;18.40;58.50;;;;;;5053830;28;1389;-70
2022/03/17 03:16:09;;;;;;;;;;;18.40;58.50;;;;;;5043223;28;1182;-70
2022/03/17 03:18:36;;;;;;;;;;;18.40;58.50;;;;;;5054285;28;1094;-70
2022/03/17 03:21:01;;;;;;;;;;;18.40;58.50;;;;;;5055698;28;1358;-70
2022/03/17 03:23:26;;;;;;;;;;;18.40;58.50;;;;;;5055314;28;1306;-70
2022/03/17 03:25:52;;;;;;;;;;;18.40;58.50;;;;;;5054999;28;2002;-70
2022/03/17 03:28:17;;;;;;;;;;;18.40;58.50;;;;;;5055471;28;1411;-69
2022/03/17 03:30:43;;;;;;;;;;;18.40;58.50;;;;;;5047906;28;1902;-68
2022/03/17 03:33:08;;;;;;;;;;;18.40;58.50;;;;;;5054628;28;1290;-68
2022/03/17 03:38:19;;;;;;;;;;;18.40;58.60;;;;;;5055354;28;1938;-68
2022/03/17 03:40:45;;;;;;;;;;;18.40;58.60;;;;;;5054298;28;1102;-68
2022/03/17 03:43:10;;;;;;;;;;;18.40;58.60;;;;;;5053575;28;1260;-68
2022/03/17 03:45:35;;;;;;;;;;;18.40;58.60;;;;;;5054840;28;1283;-68
2022/03/17 03:48:01;;;;;;;;;;;18.40;58.60;;;;;;5054854;28;1308;-69
2022/03/17 03:50:28;;;;;;;;;;;18.30;58.60;;;;;;5052850;28;1910;-69
2022/03/17 03:52:53;;;;;;;;;;;18.40;58.60;;;;;;5054781;28;1273;-69
2022/03/17 03:55:19;;;;;;;;;;;18.40;58.60;;;;;;5054957;28;951;-70
2022/03/17 03:57:46;;;;;;;;;;;18.30;58.60;;;;;;5053562;28;1360;-71
2022/03/17 04:02:56;;;;;;;;;;;18.40;58.60;;;;;;5053356;28;1426;-69
2022/03/17 04:05:25;;;;;;;;;;;18.30;58.60;;;;;;5053244;28;1353;-68
2022/03/17 04:07:51;;;;;;;;;;;18.40;58.70;;;;;;5053569;28;1361;-68
2022/03/17 04:10:16;;;;;;;;;;;18.30;58.60;;;;;;5053982;28;1965;-70
2022/03/17 04:12:41;;;;;;;;;;;18.30;58.60;;;;;;5053146;28;1385;-70
2022/03/17 04:15:07;;;;;;;;;;;18.30;58.60;;;;;;5054096;28;1161;-70
2022/03/17 04:17:33;;;;;;;;;;;18.30;58.70;;;;;;5054387;28;1162;-71
2022/03/17 04:19:58;;;;;;;;;;;18.40;58.70;;;;;;5052567;28;1067;-69
2022/03/17 04:22:23;;;;;;;;;;;18.30;58.60;;;;;;5054358;28;1375;-69
2022/03/17 04:24:49;;;;;;;;;;;18.40;58.70;;;;;;5054261;28;1301;-69
2022/03/17 04:27:14;;;;;;;;;;;18.40;58.70;;;;;;5054114;28;1240;-69
2022/03/17 04:29:40;;;;;;;;;;;18.30;58.70;;;;;;5053224;28;1961;-69
2022/03/17 04:32:06;;;;;;;;;;;18.30;58.70;;;;;;5053911;28;1296;-68
2022/03/17 04:34:31;;;;;;;;;;;18.30;58.70;;;;;;5053829;28;1244;-69
2022/03/17 04:36:56;;;;;;;;;;;18.30;58.70;;;;;;5050680;28;1331;-69
2022/03/17 04:39:22;;;;;;;;;;;18.30;58.70;;;;;;5053475;28;1021;-71
2022/03/17 04:41:48;;;;;;;;;;;18.30;58.70;;;;;;5053724;28;819;-70
2022/03/17 04:44:13;;;;;;;;;;;18.30;58.70;;;;;;5046740;28;1778;-69
2022/03/17 04:46:40;;;;;;;;;;;18.30;58.80;;;;;;5047779;28;2173;-68
2022/03/17 04:49:06;;;;;;;;;;;18.30;58.80;;;;;;5052258;28;1058;-65
2022/03/17 04:51:31;;;;;;;;;;;18.30;59.30;;;;;;5052193;28;1894;-66
2022/03/17 04:53:57;;;;;;;;;;;18.30;58.80;;;;;;5053251;28;1150;-67
2022/03/17 04:56:22;;;;;;;;;;;18.30;58.80;;;;;;5052636;28;721;-66
2022/03/17 04:58:48;;;;;;;;;;;18.30;58.80;;;;;;5052349;28;878;-65
2022/03/17 05:01:13;;;;;;;;;;;18.30;58.80;;;;;;5051184;28;931;-65
2022/03/17 05:03:39;;;;;;;;;;;18.30;58.80;;;;;;5051705;28;1223;-67
2022/03/17 05:06:04;;;;;;;;;;;18.30;58.80;;;;;;5052193;28;844;-67
2022/03/17 05:08:33;;;;;;;;;;;18.30;58.80;;;;;;5052187;28;859;-66
2022/03/17 05:10:59;;;;;;;;;;;18.30;58.80;;;;;;5052882;28;1957;-68
2022/03/17 05:13:25;;;;;;;;;;;18.30;58.80;;;;;;5051143;28;1232;-69
2022/03/17 05:15:51;;;;;;;;;;;18.30;58.80;;;;;;5051030;28;1194;-67
2022/03/17 05:18:17;;;;;;;;;;;18.30;58.80;;;;;;5052088;28;823;-67
2022/03/17 05:20:42;;;;;;;;;;;18.30;58.90;;;;;;5049564;28;824;-68
2022/03/17 05:23:08;;;;;;;;;;;18.30;58.90;;;;;;5052301;28;1286;-66
2022/03/17 05:25:34;;;;;;;;;;;18.30;58.90;;;;;;5051335;28;895;-67
2022/03/17 05:27:59;;;;;;;;;;;18.30;58.90;;;;;;5051788;28;866;-67
2022/03/17 05:30:25;;;;;;;;;;;18.30;58.80;;;;;;5051138;28;1910;-66
2022/03/17 05:32:50;;;;;;;;;;;18.20;58.80;;;;;;5051335;28;1254;-66
2022/03/17 05:35:16;;;;;;;;;;;18.30;58.90;;;;;;5052053;28;725;-66
2022/03/17 05:37:41;;;;;;;;;;;18.20;58.80;;;;;;5052081;28;1233;-66
2022/03/17 05:40:13;;;;;;;;;;;18.20;58.80;;;;;;5051261;28;788;-65
2022/03/17 05:42:42;;;;;;;;;;;18.20;58.80;;;;;;5052113;28;1342;-69
2022/03/17 05:45:08;;;;;;;;;;;18.20;58.80;;;;;;5051605;28;850;-69
2022/03/17 05:47:44;;;;;;;;;;;18.20;58.90;;;;;;5050395;28;943;-67
2022/03/17 05:50:10;;;;;;;;;;;18.20;58.90;;;;;;5050991;28;1957;-66
2022/03/17 05:52:35;;;;;;;;;;;18.30;58.90;;;;;;5052666;28;1298;-67
2022/03/17 05:55:01;;;;;;;;;;;18.20;58.90;;;;;;5052381;28;835;-68
2022/03/17 05:57:26;;;;;;;;;;;18.20;58.90;;;;;;5052808;28;871;-67
2022/03/17 05:59:52;;;;;;;;;;;18.20;58.90;;;;;;5051795;28;804;-67
2022/03/17 06:02:17;;;;;;;;;;;18.20;58.90;;;;;;5052446;28;1299;-67
2022/03/17 06:04:43;;;;;;;;;;;18.20;58.90;;;;;;5052659;28;889;-70
2022/03/17 06:07:08;;;;;;;;;;;18.20;58.90;;;;;;5052402;28;851;-69
2022/03/17 06:09:34;;;;;;;;;;;18.20;58.90;;;;;;5050878;28;1963;-69
2022/03/17 06:11:59;;;;;;;;;;;18.20;58.90;;;;;;5052344;28;705;-68
2022/03/17 06:14:27;;;;;;;;;;;18.30;58.90;;;;;;5052351;28;1206;-69
2022/03/17 06:16:52;;;;;;;;;;;18.30;58.80;;;;;;5052442;28;1091;-69
2022/03/17 06:19:18;;;;;;;;;;;18.30;58.80;;;;;;5051871;28;1021;-70
2022/03/17 06:21:43;;;;;;;;;;;18.30;58.60;;;;;;5052236;28;887;-68
2022/03/17 06:24:09;;;;;;;;;;;18.40;58.50;;;;;;5052232;28;1208;-68
2022/03/17 06:26:34;;;;;;;;;;;18.40;58.40;;;;;;5040865;28;1649;-69
2022/03/17 06:29:00;;;;;;;;;;;18.50;58.30;;;;;;5050598;28;835;-68
2022/03/17 06:31:25;;;;;;;;;;;18.50;58.20;;;;;;5051383;28;1961;-70
2022/03/17 06:33:51;;;;;;;;;;;18.60;58.10;;;;;;5051947;28;1315;-69
2022/03/17 06:36:16;;;;;;;;;;;18.60;58.00;;;;;;5051472;28;1115;-70
2022/03/17 06:38:41;;;;;;;;;;;18.60;57.80;;;;;;5050439;28;728;-73
2022/03/17 06:41:07;;;;;;;;;;;18.70;57.80;;;;;;5051957;28;842;-71
2022/03/17 06:43:32;;;;;;;;;;;18.70;57.70;;;;;;5053878;28;1216;-69
2022/03/17 06:45:58;;;;;;;;;;;18.80;57.60;;;;;;5055448;28;792;-67
2022/03/17 06:48:23;;;;;;;;;;;18.80;57.60;;;;;;5055158;28;871;-68
2022/03/17 06:50:48;;;;;;;;;;;18.80;57.50;;;;;;5054728;28;2011;-69
2022/03/17 06:53:14;;;;;;;;;;;18.80;57.40;;;;;;5055096;28;1211;-68
2022/03/17 06:55:39;;;;;;;;;;;18.80;57.40;;;;;;5055055;28;915;-68
2022/03/17 06:58:05;;;;;;;;;;;18.80;57.30;;;;;;5055061;28;866;-72
2022/03/17 07:00:30;;;;;;;;;;;18.90;57.30;;;;;;5053972;28;691;-71
2022/03/17 07:02:56;;;;;;;;;;;18.90;57.20;;;;;;5056096;28;1191;-72
2022/03/17 07:05:21;;;;;;;;;;;18.90;57.80;;;;;;5055644;28;969;-71
2022/03/17 07:07:47;;;;;;;;;;;18.90;57.20;;;;;;5055965;28;974;-72
2022/03/17 07:10:12;;;;;;;;;;;18.90;57.20;;;;;;5053747;28;1898;-71
2022/03/17 07:12:38;;;;;;;;;;;18.90;57.10;;;;;;5054661;28;1202;-72
2022/03/17 07:15:06;;;;;;;;;;;18.90;57.20;;;;;;5054593;28;1127;-71
2022/03/17 07:17:41;;;;;;;;;;;18.90;57.10;;;;;;5054298;28;1151;-71
2022/03/17 07:20:10;;;;;;;;;;;18.90;57.10;;;;;;5054557;28;938;-68
2022/03/17 07:22:35;;;;;;;;;;;18.90;57.70;;;;;;5055353;28;1273;-68
2022/03/17 07:25:01;;;;;;;;;;;18.90;57.10;;;;;;5054393;28;847;-69
2022/03/17 07:27:27;;;;;;;;;;;19.00;57.30;;;;;;5055655;28;902;-66
2022/03/17 07:29:52;;;;;;;;;;;18.90;57.10;;;;;;5054537;28;1898;-67
2022/03/17 07:32:22;;;;;;;;;;;18.90;57.10;;;;;;5053282;28;1335;-68
2022/03/17 07:34:49;;;;;;;;;;;18.90;57.10;;;;;;5055018;28;910;-66
2022/03/17 07:37:15;;;;;;;;;;;18.90;57.00;;;;;;5053906;28;1135;-68
2022/03/17 07:39:41;;;;;;;;;;;18.90;57.00;;;;;;5053069;28;804;-69
2022/03/17 07:42:06;;;;;;;;;;;18.90;57.00;;;;;;5053775;28;878;-67
2022/03/17 07:44:32;;;;;;;;;;;19.00;57.10;;;;;;5055482;28;1158;-67
2022/03/17 07:46:57;;;;;;;;;;;19.00;57.00;;;;;;5054777;28;867;-68
2022/03/17 07:49:22;;;;;;;;;;;19.10;56.90;;;;;;5054186;28;1883;-68
2022/03/17 07:51:48;;;;;;;;;;;19.20;56.80;;;;;;5054486;28;1010;-68
2022/03/17 07:54:13;;;;;;;;;;;19.30;56.70;;;;;;5049692;28;2275;-68
2022/03/17 07:56:40;;;;;;;;;;;19.40;57.10;;;;;;5054226;28;1084;-68
2022/03/17 07:59:05;;;;;;;;;;;19.50;56.40;;;;;;5052806;28;1357;-69
2022/03/17 08:01:31;;;;;;;;;;;19.60;56.10;;;;;;5054648;28;891;-69
2022/03/17 08:03:56;;;;;;;;;;;19.70;55.90;;;;;;5053628;28;1209;-69
2022/03/17 08:06:22;;;;;;;;;;;19.80;55.70;;;;;;5054469;28;981;-69
2022/03/17 08:08:47;;;;;;;;;;;19.90;55.40;;;;;;5054520;28;1013;-69
2022/03/17 08:11:12;;;;;;;;;;;20.00;55.20;;;;;;5054482;28;1959;-70
2022/03/17 08:13:38;;;;;;;;;;;20.10;55.00;;;;;;5053791;28;1307;-71
2022/03/17 08:16:04;;;;;;;;;;;20.20;54.80;;;;;;5053116;28;1139;-70
2022/03/17 08:18:31;;;;;;;;;;;20.30;54.60;;;;;;5052612;28;1077;-68
2022/03/17 08:20:56;;;;;;;;;;;20.30;54.30;;;;;;5054270;28;810;-70
2022/03/17 08:23:22;;;;;;;;;;;20.40;54.30;;;;;;5053994;28;1306;-70
2022/03/17 08:25:48;;;;;;;;;;;20.40;54.20;;;;;;5053687;28;1214;-69
2022/03/17 08:28:14;;;;;;;;;;;20.50;54.10;;;;;;5037298;28;1261;-69
2022/03/17 08:30:39;;;;;;;;;;;20.50;54.00;;;;;;5054663;28;1902;-69
2022/03/17 08:33:05;;;;;;;;;;;20.50;53.90;;;;;;5053633;28;1322;-68
2022/03/17 08:35:30;;;;;;;;;;;20.50;53.90;;;;;;5054833;28;1153;-69
2022/03/17 08:37:59;;;;;;;;;;;20.60;53.90;;;;;;5054914;28;886;-69
2022/03/17 08:40:24;;;;;;;;;;;20.60;53.90;;;;;;5053070;28;943;-69
2022/03/17 08:42:49;;;;;;;;;;;20.60;53.90;;;;;;5053524;28;1270;-68
2022/03/17 08:50:44;;;;;;;;;;;20.60;53.90;;;;;;5054168;28;1965;-68
2022/03/17 08:53:09;;;;;;;;;;;20.60;53.90;;;;;;5053601;28;1286;-67
2022/03/17 08:55:36;;;;;;;;;;;20.60;53.90;;;;;;5053393;28;863;-67
2022/03/17 08:58:02;;;;;;;;;;;20.60;54.00;;;;;;5053431;28;857;-67
2022/03/17 09:00:27;;;;;;;;;;;20.60;54.00;;;;;;5051219;28;954;-67
2022/03/17 09:02:55;;;;;;;;;;;20.60;54.00;;;;;;5053516;28;1228;-67
2022/03/17 09:05:20;;;;;;;;;;;20.50;53.90;;;;;;5051409;28;937;-67
2022/03/17 09:07:46;;;;;;;;;;;20.50;53.90;;;;;;5052289;28;830;-67
2022/03/17 09:10:11;;;;;;;;;;;20.50;54.00;;;;;;5052226;28;1894;-67
2022/03/17 09:12:38;;;;;;;;;;;20.50;54.00;;;;;;5053310;28;1246;-68
2022/03/17 09:15:04;;;;;;;;;;;20.50;54.10;;;;;;5052426;28;1143;-67
2022/03/17 09:17:30;;;;;;;;;;;20.50;54.10;;;;;;5053262;28;1266;-68
2022/03/17 09:19:55;;;;;;;;;;;20.50;54.10;;;;;;5052431;28;1080;-70
2022/03/17 09:22:21;;;;;;;;;;;20.40;54.20;;;;;;5052732;28;1221;-70
2022/03/17 09:24:48;;;;;;;;;;;20.40;54.30;;;;;;5051817;28;1343;-68
2022/03/17 09:27:14;;;;;;;;;;;20.40;54.40;;;;;;5052068;28;1160;-68
2022/03/17 09:29:40;;;;;;;;;;;20.40;54.40;;;;;;5050883;28;1910;-68
2022/03/17 09:32:06;;;;;;;;;;;20.30;54.30;;;;;;5050663;28;1784;-68
2022/03/17 09:34:32;;;;;;;;;;;20.30;55.00;;;;;;5052486;28;1966;-68
2022/03/17 09:36:57;;;;;;;;;;;20.30;54.50;;;;;;5052156;28;1063;-67
2022/03/17 09:39:45;;;;;;;;;;;20.30;54.60;;;;;;5045839;28;1631;-67
2022/03/17 09:42:20;;;;;;;;;;;20.30;54.60;;;;;;5043805;28;1174;-68
2022/03/17 09:44:52;;;;;;;;;;;20.30;54.70;;;;;;5051600;28;1094;-67
2022/03/17 09:47:20;;;;;;;;;;;20.30;54.70;;;;;;5050180;28;863;-67
2022/03/17 09:49:49;;;;;;;;;;;20.20;54.70;;;;;;5049991;28;1982;-68
2022/03/17 09:52:16;;;;;;;;;;;20.20;54.80;;;;;;5051340;28;977;-67
2022/03/17 09:54:41;;;;;;;;;;;20.20;54.80;;;;;;5050576;28;918;-68
2022/03/17 09:57:06;;;;;;;;;;;20.20;54.80;;;;;;5050319;28;1199;-68
2022/03/17 09:59:32;;;;;;;;;;;20.10;54.90;;;;;;5049416;28;1227;-68
2022/03/17 10:01:57;;;;;;;;;;;20.20;55.00;;;;;;5040809;28;1227;-68
2022/03/17 10:04:23;;;;;;;;;;;20.20;55.00;;;;;;5050035;28;1302;-67
2022/03/17 10:06:49;;;;;;;;;;;20.10;55.00;;;;;;5048554;28;1240;-69
2022/03/17 10:09:14;;;;;;;;;;;20.10;55.10;;;;;;5048199;28;1172;-68
2022/03/17 10:11:40;;;;;;;;;;;20.10;55.10;;;;;;5050882;28;1898;-68
2022/03/17 10:14:06;;;;;;;;;;;20.10;55.10;;;;;;5050909;28;1327;-67
2022/03/17 10:16:31;;;;;;;;;;;20.10;55.10;;;;;;5048632;28;1814;-67
2022/03/17 10:18:57;;;;;;;;;;;20.10;55.20;;;;;;5049684;28;1026;-67
2022/03/17 10:21:26;;;;;;;;;;;20.10;55.20;;;;;;5050801;28;1161;-68
2022/03/17 10:23:54;;;;;;;;;;;20.10;55.20;;;;;;5049179;28;1402;-68
2022/03/17 10:26:29;;;;;;;;;;;20.00;55.20;;;;;;5050157;28;832;-69
2022/03/17 10:29:02;;;;;;;;;;;20.00;55.20;;;;;;5049529;28;799;-67
2022/03/17 10:31:27;;;;;;;;;;;20.00;55.30;;;;;;5050889;28;1967;-67
2022/03/17 10:33:53;;;;;;;;;;;20.00;55.30;;;;;;5050868;28;1322;-66
2022/03/17 10:36:21;;;;;;;;;;;20.00;55.30;;;;;;5050796;28;1126;-67
2022/03/17 10:38:47;;;;;;;;;;;20.00;55.30;;;;;;5045753;28;1200;-67
2022/03/17 10:41:13;;;;;;;;;;;20.00;55.40;;;;;;5048165;28;1208;-67
2022/03/17 10:43:39;;;;;;;;;;;20.00;55.40;;;;;;5048874;28;1362;-67
2022/03/17 10:46:04;;;;;;;;;;;20.00;55.40;;;;;;5048476;28;1243;-67
2022/03/17 10:48:30;;;;;;;;;;;20.00;55.40;;;;;;5049540;28;1183;-67
2022/03/17 10:50:55;;;;;;;;;;;20.00;55.40;;;;;;5048518;28;1965;-67
2022/03/17 10:53:27;;;;;;;;;;;20.00;55.30;;;;;;5046264;28;1358;-68
2022/03/17 10:55:52;;;;;;;;;;;20.00;55.30;;;;;;5049140;28;1041;-67
2022/03/17 10:58:19;;;;;;;;;;;20.00;55.30;;;;;;5049957;28;987;-67
2022/03/17 11:00:44;;;;;;;;;;;20.10;55.30;;;;;;5048957;28;1184;-68
2022/03/17 11:03:09;;;;;;;;;;;20.10;55.20;;;;;;5050095;28;1327;-67
2022/03/17 11:05:35;;;;;;;;;;;20.10;55.20;;;;;;5051217;28;922;-68
2022/03/17 11:08:01;;;;;;;;;;;20.10;55.10;;;;;;5049164;28;1353;-67
2022/03/17 11:10:26;;;;;;;;;;;20.10;55.10;;;;;;5049568;28;1962;-67
2022/03/17 11:12:52;;;;;;;;;;;20.10;55.10;;;;;;5050445;28;1319;-67
2022/03/17 11:15:27;;;;;;;;;;;20.10;55.10;;;;;;5050922;28;1165;-67
2022/03/17 11:17:52;;;;;;;;;;;20.10;55.10;;;;;;5049285;28;811;-68
2022/03/17 11:20:19;;;;;;;;;;;20.10;55.70;;;;;;5050028;28;916;-67
2022/03/17 11:22:50;;;;;;;;;;;20.10;55.10;;;;;;5050042;28;1220;-67
2022/03/17 11:25:16;;;;;;;;;;;20.10;55.10;;;;;;5049459;28;867;-67
2022/03/17 11:27:46;;;;;;;;;;;20.10;55.10;;;;;;5050766;28;859;-68
2022/03/17 11:30:12;;;;;;;;;;;20.10;55.10;;;;;;5051228;28;1963;-68
2022/03/17 11:32:37;;;;;;;;;;;20.10;55.10;;;;;;5052720;28;1228;-67
2022/03/17 11:35:16;;;;;;;;;;;20.10;55.20;;;;;;5054491;28;823;-67
2022/03/17 11:37:41;;;;;;;;;;;20.10;55.20;;;;;;5052919;28;1197;-66
2022/03/17 11:40:07;;;;;;;;;;;20.10;55.20;;;;;;5053599;28;891;-67
2022/03/17 11:42:32;;;;;;;;;;;20.10;55.20;;;;;;5053988;28;1291;-68
2022/03/17 11:45:07;;;;;;;;;;;20.10;55.20;;;;;;5054079;28;812;-68
2022/03/17 11:47:36;;;;;;;;;;;20.00;55.20;;;;;;5054453;28;1074;-68
2022/03/17 11:50:20;;;;;;;;;;;20.00;55.20;;;;;;5052340;28;1894;-67
2022/03/17 11:52:52;;;;;;;;;;;20.00;55.30;;;;;;5053924;28;1359;-69
2022/03/17 11:55:33;;;;;;;;;;;20.00;55.30;;;;;;5054939;28;804;-68
2022/03/17 11:58:18;;;;;;;;;;;20.00;55.30;;;;;;5053404;28;918;-68
2022/03/17 12:00:46;;;;;;;;;;;20.00;55.40;;;;;;5054360;28;831;-67
2022/03/17 12:03:12;;;;;;;;;;;20.00;55.40;;;;;;5054730;28;1274;-67
2022/03/17 12:05:44;;;;;;;;;;;19.90;55.40;;;;;;5054811;28;1052;-67
2022/03/17 12:08:15;;;;;;;;;;;20.00;55.50;;;;;;5052914;28;1004;-68
2022/03/17 12:10:59;;;;;;;;;;;19.90;55.50;;;;;;5050299;28;1902;-67
2022/03/17 12:13:25;;;;;;;;;;;19.90;55.50;;;;;;5051086;28;1338;-67
2022/03/17 12:15:55;;;;;;;;;;;19.90;55.60;;;;;;5052772;28;1267;-67
2022/03/17 12:18:20;;;;;;;;;;;19.90;55.60;;;;;;5052874;28;1282;-67
2022/03/17 12:20:46;;;;;;;;;;;19.90;55.60;;;;;;5052672;28;1215;-67
2022/03/17 12:23:30;;;;;;;;;;;19.80;55.60;;;;;;5040925;28;1620;-65
2022/03/17 12:26:05;;;;;;;;;;;19.80;55.70;;;;;;5050308;28;1172;-65
2022/03/17 12:28:30;;;;;;;;;;;19.80;55.80;;;;;;5045518;28;1718;-65
2022/03/17 12:30:56;;;;;;;;;;;19.80;55.80;;;;;;5050209;28;1971;-65
2022/03/17 12:33:22;;;;;;;;;;;19.80;55.90;;;;;;5051634;28;1296;-65
2022/03/17 12:35:50;;;;;;;;;;;19.80;56.00;;;;;;5050573;28;1236;-65
2022/03/17 12:38:18;;;;;;;;;;;19.70;55.90;;;;;;5050820;28;1367;-65
2022/03/17 12:40:45;;;;;;;;;;;19.70;56.00;;;;;;5050381;28;1277;-66
2022/03/17 12:43:11;;;;;;;;;;;19.70;56.00;;;;;;5051049;28;1238;-69
2022/03/17 12:45:36;;;;;;;;;;;19.70;56.10;;;;;;5052585;28;1200;-68
2022/03/17 12:48:02;;;;;;;;;;;19.70;56.10;;;;;;5050534;28;1204;-71
2022/03/17 12:50:28;;;;;;;;;;;19.70;56.20;;;;;;5051029;28;1938;-72
2022/03/17 12:52:53;;;;;;;;;;;19.60;56.20;;;;;;5049268;28;1297;-72
2022/03/17 12:55:19;;;;;;;;;;;19.60;56.30;;;;;;5050700;28;1331;-70
2022/03/17 12:57:46;;;;;;;;;;;19.60;56.30;;;;;;5045556;28;1214;-68
2022/03/17 13:00:13;;;;;;;;;;;19.60;56.40;;;;;;5046173;28;1228;-71
2022/03/17 13:02:48;;;;;;;;;;;19.50;56.40;;;;;;5049383;28;1425;-70
2022/03/17 13:07:58;;;;;;;;;;;19.50;56.50;;;;;;5031094;28;643;-70
2022/03/17 13:10:27;;;;;;;;;;;19.50;56.60;;;;;;5031526;28;1906;-70
2022/03/17 13:15:36;;;;;;;;;;;19.40;56.60;;;;;;5051859;28;1091;-69
2022/03/17 13:18:03;;;;;;;;;;;19.40;56.70;;;;;;5053050;28;1022;-68
2022/03/17 13:20:29;;;;;;;;;;;19.40;56.70;;;;;;5052664;28;1037;-69
2022/03/17 13:22:57;;;;;;;;;;;19.40;56.80;;;;;;5050671;28;1211;-68
2022/03/17 13:25:23;;;;;;;;;;;19.40;56.80;;;;;;5052487;28;1054;-68
2022/03/17 13:28:01;;;;;;;;;;;19.30;56.80;;;;;;5051239;28;792;-69
2022/03/17 13:30:27;;;;;;;;;;;19.30;56.90;;;;;;5050270;28;1902;-69
2022/03/17 13:32:59;;;;;;;;;;;19.30;56.90;;;;;;5052129;28;1231;-69
2022/03/17 13:35:25;;;;;;;;;;;19.30;57.00;;;;;;5052363;28;1231;-68
2022/03/17 13:37:50;;;;;;;;;;;19.30;57.00;;;;;;5052059;28;796;-69
2022/03/17 13:40:17;;;;;;;;;;;19.30;57.00;;;;;;5050189;28;1454;-68
2022/03/17 13:43:01;;;;;;;;;;;19.20;57.00;;;;;;5050809;28;1217;-68
2022/03/17 13:45:33;;;;;;;;;;;19.20;57.10;;;;;;5052251;28;843;-69
2022/03/17 13:48:00;;;;;;;;;;;19.20;57.20;;;;;;5051648;28;795;-68
2022/03/17 13:50:26;;;;;;;;;;;19.20;57.20;;;;;;5051456;28;2019;-69
2022/03/17 13:53:01;;;;;;;;;;;19.20;57.80;;;;;;5051360;28;1267;-69
2022/03/17 13:55:30;;;;;;;;;;;19.20;57.30;;;;;;5051068;28;842;-69
2022/03/17 13:57:59;;;;;;;;;;;19.20;57.30;;;;;;5050647;28;760;-69
2022/03/17 14:00:24;;;;;;;;;;;19.10;57.30;;;;;;5049925;28;1232;-69
2022/03/17 14:03:09;;;;;;;;;;;19.10;57.30;;;;;;5049152;28;1233;-68
2022/03/17 14:05:34;;;;;;;;;;;19.10;57.30;;;;;;5051977;28;871;-69
2022/03/17 14:07:59;;;;;;;;;;;19.10;57.40;;;;;;5051658;28;875;-69
2022/03/17 14:10:25;;;;;;;;;;;19.10;57.40;;;;;;5049817;28;1918;-69
2022/03/17 14:13:01;;;;;;;;;;;19.10;57.50;;;;;;5051675;28;1231;-68
2022/03/17 14:15:26;;;;;;;;;;;19.10;57.50;;;;;;5051670;28;1217;-69
2022/03/17 14:17:52;;;;;;;;;;;19.10;57.60;;;;;;5051072;28;887;-68
2022/03/17 14:20:17;;;;;;;;;;;19.00;57.50;;;;;;5051413;28;872;-69
2022/03/17 14:25:32;;;;;;;;;;;19.00;57.60;;;;;;5031838;28;1384;-69
2022/03/17 14:27:58;;;;;;;;;;;19.00;57.60;;;;;;5050312;28;1002;-68
2022/03/17 14:30:23;;;;;;;;;;;19.00;57.70;;;;;;5050922;28;1961;-69
2022/03/17 14:32:48;;;;;;;;;;;19.00;57.70;;;;;;5050850;28;1306;-68
2022/03/17 14:35:15;;;;;;;;;;;18.90;57.70;;;;;;5051974;28;852;-69
2022/03/17 14:37:40;;;;;;;;;;;19.00;57.70;;;;;;5051396;28;1154;-68
2022/03/17 14:40:06;;;;;;;;;;;19.00;57.80;;;;;;5050864;28;878;-68
2022/03/17 14:42:33;;;;;;;;;;;18.90;57.70;;;;;;5051284;28;1304;-69
2022/03/17 14:44:59;;;;;;;;;;;18.90;57.80;;;;;;5051629;28;1088;-68
2022/03/17 14:47:25;;;;;;;;;;;18.90;57.80;;;;;;5050718;28;850;-69
2022/03/17 14:49:50;;;;;;;;;;;18.90;57.80;;;;;;5050663;28;1906;-69
2022/03/17 14:52:16;;;;;;;;;;;18.90;57.80;;;;;;5050608;28;788;-68
2022/03/17 14:54:41;;;;;;;;;;;18.90;57.90;;;;;;5049945;28;1248;-68
2022/03/17 14:57:07;;;;;;;;;;;18.90;58.10;;;;;;5049727;28;3043;-70